Time;durP1;ratioP1;P1;durP2;ratioP2;P2;SDS_P1;SDS_P2;PMS_P1;PMS_P2;Temp;Humidity;BMP_temperature;BMP_pressure;BME280_temperature;BME280_humidity;BME280_pressure;Samples;Min_cycle;Max_cycle;Signal;HPM_P1;HPM_P2
2022/01/22 00:00:48;;;;;;;10.20;3.15;;;;;;;-0.91;82.77;97436.97;5114083;28;20518;-76
2022/01/22 00:03:14;;;;;;;5.90;2.50;;;;;;;-0.93;82.51;97429.16;5113885;28;20047;-76
2022/01/22 00:05:41;;;;;;;8.90;2.83;;;;;;;-0.91;82.40;97420.91;5113945;28;20043;-76
2022/01/22 00:08:08;;;;;;;8.85;2.30;;;;;;;-0.91;81.94;97437.78;5113442;28;20051;-76
2022/01/22 00:10:40;;;;;;;10.77;2.67;;;;;;;-0.87;81.46;97432.81;5114017;28;20045;-75
2022/01/22 00:14:23;;;;;;;10.95;2.85;;;;;;;-0.90;81.36;97435.91;5113432;28;20048;-76
2022/01/22 00:15:54;;;;;;;7.25;2.47;;;;;;;-0.94;81.16;97430.19;5113713;28;20451;-76
2022/01/22 00:18:21;;;;;;;4.80;2.70;;;;;;;-0.94;81.34;97438.22;5113273;28;20051;-76
2022/01/22 00:20:48;;;;;;;7.97;2.83;;;;;;;-0.93;81.04;97439.84;5113824;28;20059;-76
2022/01/22 00:23:16;;;;;;;4.03;1.98;;;;;;;-0.91;81.11;97437.78;5113217;28;20055;-76
2022/01/22 00:25:43;;;;;;;9.27;2.60;;;;;;;-0.87;81.16;97428.28;5113573;28;20043;-76
2022/01/22 00:28:10;;;;;;;9.15;2.58;;;;;;;-0.86;80.92;97432.59;5113070;28;20410;-76
2022/01/22 00:30:36;;;;;;;8.57;2.72;;;;;;;-0.89;81.99;97425.03;5113124;28;20050;-77
2022/01/22 00:33:03;;;;;;;6.85;2.45;;;;;;;-0.91;82.98;97432.44;5113137;28;20513;-76
2022/01/22 00:35:29;;;;;;;7.50;3.17;;;;;;;-0.92;83.52;97425.44;5113451;28;20628;-76
2022/01/22 00:37:56;;;;;;;8.07;2.47;;;;;;;-0.94;83.87;97422.19;5113511;28;20051;-77
2022/01/22 00:40:23;;;;;;;11.35;3.33;;;;;;;-1.00;84.79;97416.88;5112837;28;20058;-76
2022/01/22 00:42:51;;;;;;;10.45;2.85;;;;;;;-1.04;85.29;97405.81;5113184;28;20040;-77
2022/01/22 00:45:19;;;;;;;8.05;2.88;;;;;;;-1.05;85.40;97409.50;5112778;28;20048;-76
2022/01/22 00:47:46;;;;;;;9.40;2.38;;;;;;;-1.03;85.14;97401.28;5113229;28;20040;-77
2022/01/22 00:50:15;;;;;;;6.38;2.50;;;;;;;-1.09;85.05;97397.63;5112681;28;20051;-76
2022/01/22 00:52:43;;;;;;;4.32;2.20;;;;;;;-1.06;84.84;97397.19;5113255;28;20062;-76
2022/01/22 00:55:10;;;;;;;8.85;2.35;;;;;;;-1.01;83.91;97396.53;5112590;28;20516;-76
2022/01/22 00:57:37;;;;;;;5.00;2.17;;;;;;;-0.95;83.94;97398.31;5112774;28;20510;-76
2022/01/22 01:00:07;;;;;;;5.72;2.28;;;;;;;-0.94;83.59;97390.09;5112730;28;20046;-76
2022/01/22 01:02:35;;;;;;;4.93;1.80;;;;;;;-0.91;83.16;97405.69;5113134;28;20058;-76
2022/01/22 01:05:02;;;;;;;4.22;2.22;;;;;;;-0.88;82.90;97381.19;5112710;28;20463;-76
2022/01/22 01:07:30;;;;;;;4.57;1.80;;;;;;;-0.87;82.63;97374.00;5112740;28;20043;-76
2022/01/22 01:09:57;;;;;;;5.93;1.92;;;;;;;-0.90;82.21;97377.91;5112763;28;20077;-76
2022/01/22 01:12:24;;;;;;;4.75;1.67;;;;;;;-0.90;81.85;97369.88;5111921;28;20065;-76
2022/01/22 01:15:05;;;;;;;5.47;1.77;;;;;;;-0.82;81.74;97366.13;5112769;28;20040;-76
2022/01/22 01:17:57;;;;;;;2.83;1.45;;;;;;;-0.76;81.24;97369.78;5112752;28;20042;-76
2022/01/22 01:34:10;;;;;;;3.45;1.77;;;;;;;-0.65;79.20;97366.34;5112279;28;20128;-76
2022/01/22 01:36:37;;;;;;;3.80;1.60;;;;;;;-0.62;78.49;97376.63;5112349;28;20039;-76
2022/01/22 01:39:07;;;;;;;4.32;1.88;;;;;;;-0.58;78.37;97377.78;5111910;28;20421;-76
2022/01/22 01:41:42;;;;;;;4.88;1.70;;;;;;;-0.56;78.58;97381.09;5110788;28;20497;-76
2022/01/22 01:44:09;;;;;;;3.67;1.70;;;;;;;-0.58;78.38;97370.59;5111919;28;20040;-76
2022/01/22 01:46:35;;;;;;;3.53;1.80;;;;;;;-0.55;78.62;97382.72;5112107;28;20406;-76
2022/01/22 01:49:04;;;;;;;5.47;1.63;;;;;;;-0.56;78.64;97359.69;5111587;28;20044;-76
2022/01/22 01:51:33;;;;;;;6.72;1.70;;;;;;;-0.56;79.05;97357.00;5112162;28;20051;-77
2022/01/22 01:54:05;;;;;;;4.10;1.92;;;;;;;-0.59;79.70;97357.44;5111982;28;20036;-76
2022/01/22 01:59:18;;;;;;;5.75;1.80;;;;;;;-0.58;80.45;97345.69;5111494;28;20104;-76
2022/01/22 02:01:44;;;;;;;6.88;2.45;;;;;;;-0.59;81.29;97333.38;5111806;28;20502;-76
2022/01/22 02:04:13;;;;;;;4.78;1.95;;;;;;;-0.64;81.80;97341.25;5111355;28;20044;-76
2022/01/22 02:06:40;;;;;;;5.88;2.30;;;;;;;-0.71;82.41;97343.19;5111997;28;20047;-76
2022/01/22 02:09:09;;;;;;;5.22;2.10;;;;;;;-0.73;83.05;97339.88;5111219;28;20043;-76
2022/01/22 02:11:36;;;;;;;6.88;2.40;;;;;;;-0.74;83.44;97335.59;5111602;28;20044;-76
2022/01/22 02:14:10;;;;;;;4.10;2.17;;;;;;;-0.77;83.76;97344.06;5111138;28;20051;-76
2022/01/22 02:24:57;;;;;;;8.93;2.72;;;;;;;-0.76;84.00;97327.78;5111725;28;20517;-76
2022/01/22 02:27:24;;;;;;;6.65;2.65;;;;;;;-0.70;84.08;97336.78;5110691;28;20112;-76
2022/01/22 02:29:50;;;;;;;7.63;3.10;;;;;;;-0.69;84.43;97341.91;5111391;28;20040;-76
2022/01/22 02:32:50;;;;;;;6.00;2.65;;;;;;;-0.75;85.20;97328.59;5110816;28;20050;-76
2022/01/22 02:35:27;;;;;;;6.30;2.08;;;;;;;-0.79;85.81;97330.91;5110959;28;20501;-77
2022/01/22 02:38:00;;;;;;;6.97;3.28;;;;;;;-0.84;86.44;97338.75;5111620;28;20066;-76
2022/01/22 02:40:29;;;;;;;4.53;2.58;;;;;;;-0.86;87.22;97333.66;5110586;28;20046;-76
2022/01/22 02:42:56;;;;;;;5.00;2.70;;;;;;;-0.89;87.92;97338.59;5109359;28;20417;-76
2022/01/22 02:45:23;;;;;;;5.95;3.22;;;;;;;-0.88;88.53;97341.09;5110853;28;20504;-76
2022/01/22 02:47:50;;;;;;;8.43;3.42;;;;;;;-0.89;88.70;97343.97;5111171;28;20042;-77
2022/01/22 02:50:18;;;;;;;8.73;3.72;;;;;;;-0.85;89.02;97340.63;5110694;28;20489;-77
2022/01/22 02:52:45;;;;;;;7.80;2.88;;;;;;;-0.85;89.00;97340.63;5110980;28;20052;-76
2022/01/22 02:55:13;;;;;;;6.43;3.17;;;;;;;-0.82;88.96;97339.38;5110740;28;20047;-76
2022/01/22 02:57:43;;;;;;;7.70;3.50;;;;;;;-0.82;88.93;97340.19;5111128;28;20131;-76
2022/01/22 03:00:15;;;;;;;6.30;3.38;;;;;;;-0.80;88.83;97330.09;5110816;28;20052;-76
2022/01/22 03:02:42;;;;;;;7.97;2.80;;;;;;;-0.78;88.53;97335.22;5111093;28;20062;-77
2022/01/22 03:05:09;;;;;;;7.50;3.25;;;;;;;-0.77;88.59;97325.34;5110673;28;20044;-76
2022/01/22 03:07:39;;;;;;;8.05;3.22;;;;;;;-0.74;88.64;97324.88;5111127;28;20048;-77
2022/01/22 03:10:08;;;;;;;7.57;3.80;;;;;;;-0.74;88.51;97322.22;5110410;28;20055;-76
2022/01/22 03:18:01;;;;;;;10.80;4.80;;;;;;;-0.70;88.33;97320.75;5111091;28;20103;-76
2022/01/22 03:28:57;;;;;;;6.88;3.40;;;;;;;-0.57;87.00;97342.81;5110581;28;20050;-77
2022/01/22 03:31:24;;;;;;;8.50;3.47;;;;;;;-0.58;87.25;97321.63;5110170;28;20047;-77
2022/01/22 03:33:51;;;;;;;8.77;4.22;;;;;;;-0.56;87.45;97328.41;5110839;28;20143;-76
2022/01/22 03:36:19;;;;;;;10.95;4.00;;;;;;;-0.56;87.85;97327.59;5110375;28;20047;-77
2022/01/22 03:38:46;;;;;;;7.20;3.33;;;;;;;-0.61;88.57;97322.91;5109604;28;20532;-77
2022/01/22 03:41:12;;;;;;;7.40;4.28;;;;;;;-0.59;88.82;97322.66;5124399;28;20107;-76
2022/01/22 03:46:22;;;;;;;11.52;4.07;;;;;;;-0.64;89.61;97330.53;5070027;28;20177;-76
2022/01/22 03:48:48;;;;;;;7.53;4.05;;;;;;;-0.65;89.91;97318.22;5087516;28;20044;-77
2022/01/22 03:51:15;;;;;;;7.82;3.28;;;;;;;-0.65;90.35;97327.06;5087388;28;20059;-76
2022/01/22 03:53:42;;;;;;;7.20;4.38;;;;;;;-0.68;90.71;97319.50;5087575;28;20044;-76
2022/01/22 03:56:10;;;;;;;12.32;5.43;;;;;;;-0.66;91.08;97327.28;5087300;28;20044;-76
2022/01/22 03:58:40;;;;;;;8.75;4.55;;;;;;;-0.67;91.33;97326.47;5087623;28;20126;-77
2022/01/22 04:01:38;;;;;;;12.80;5.32;;;;;;;-0.66;91.63;97332.63;5087370;28;20044;-76
2022/01/22 04:04:09;;;;;;;8.30;4.70;;;;;;;-0.68;92.14;97324.00;5087704;28;20127;-76
2022/01/22 04:07:18;;;;;;;10.23;4.50;;;;;;;-0.72;92.51;97323.66;5091247;28;20050;-77
2022/01/22 04:09:45;;;;;;;13.13;5.43;;;;;;;-0.73;92.75;97322.00;5090834;28;20083;-77
2022/01/22 04:12:13;;;;;;;8.85;4.53;;;;;;;-0.73;93.32;97315.81;5090635;28;20044;-77
2022/01/22 04:14:47;;;;;;;12.30;5.03;;;;;;;-0.74;93.07;97308.84;5091234;28;20101;-77
2022/01/22 04:17:24;;;;;;;9.68;5.45;;;;;;;-0.71;93.25;97308.41;5089984;28;20089;-76
2022/01/22 04:25:24;;;;;;;9.88;5.60;;;;;;;-0.75;93.25;97320.59;5113336;28;20051;-77
2022/01/22 04:27:53;;;;;;;11.75;5.85;;;;;;;-0.69;93.22;97312.47;5113574;28;20043;-76
2022/01/22 04:30:20;;;;;;;10.30;5.85;;;;;;;-0.65;93.01;97323.56;5112983;28;20054;-77
2022/01/22 04:32:46;;;;;;;10.77;5.90;;;;;;;-0.64;93.04;97320.66;5113696;28;20040;-76
2022/01/22 04:35:14;;;;;;;12.13;5.47;;;;;;;-0.63;92.89;97324.16;5112924;28;20047;-77
2022/01/22 04:37:40;;;;;;;12.10;6.05;;;;;;;-0.64;92.88;97323.34;5113420;28;20039;-77
2022/01/22 04:40:08;;;;;;;12.43;5.15;;;;;;;-0.69;93.16;97309.00;5112926;28;20415;-77
2022/01/22 04:42:37;;;;;;;13.48;6.50;;;;;;;-0.69;93.42;97311.66;5113472;28;20074;-76
2022/01/22 04:45:12;;;;;;;11.95;6.43;;;;;;;-0.67;93.51;97314.97;5112944;28;20051;-76
2022/01/22 04:47:48;;;;;;;13.93;5.90;;;;;;;-0.67;93.34;97312.28;5106902;28;20071;-77
2022/01/22 04:55:52;;;;;;;14.43;6.00;;;;;;;-0.71;93.26;97316.44;5076155;28;20043;-76
2022/01/22 04:58:19;;;;;;;12.55;5.60;;;;;;;-0.77;93.57;97320.81;5112572;28;20048;-77
2022/01/22 05:00:46;;;;;;;12.73;7.00;;;;;;;-0.73;94.01;97315.81;5113197;28;20062;-76
2022/01/22 05:03:15;;;;;;;11.77;6.20;;;;;;;-0.70;93.88;97315.38;5112594;28;20130;-76
2022/01/22 05:05:43;;;;;;;14.73;6.18;;;;;;;-0.66;93.72;97320.06;5113127;28;20071;-76
2022/01/22 05:08:09;;;;;;;13.27;6.63;;;;;;;-0.71;93.83;97319.91;5112534;28;20043;-77
2022/01/22 05:10:36;;;;;;;12.60;6.95;;;;;;;-0.66;93.69;97332.63;5112646;28;20387;-76
2022/01/22 05:13:03;;;;;;;13.27;6.43;;;;;;;-0.66;93.72;97327.28;5112306;28;20533;-77
2022/01/22 05:15:29;;;;;;;13.25;6.70;;;;;;;-0.63;93.54;97326.81;5112311;28;20387;-77
2022/01/22 05:17:57;;;;;;;14.27;6.97;;;;;;;-0.65;93.28;97331.59;5112663;28;20047;-76
2022/01/22 05:20:27;;;;;;;13.48;7.40;;;;;;;-0.59;93.29;97341.38;5112320;28;20036;-77
2022/01/22 05:23:00;;;;;;;14.48;6.07;;;;;;;-0.62;93.02;97331.16;5112655;28;20063;-77
2022/01/22 05:25:32;;;;;;;12.60;7.15;;;;;;;-0.60;92.85;97324.53;5112522;28;20035;-76
2022/01/22 05:28:11;;;;;;;11.23;6.25;;;;;;;-0.59;92.69;97322.66;5112579;28;20074;-77
2022/01/22 05:33:34;;;;;;;11.93;6.57;;;;;;;-0.62;92.58;97318.59;5107489;28;20039;-77
2022/01/22 05:38:46;;;;;;;11.35;6.30;;;;;;;-0.62;92.56;97317.78;5112153;28;20132;-76
2022/01/22 05:41:13;;;;;;;11.75;6.75;;;;;;;-0.56;92.47;97320.38;5111800;28;20047;-76
2022/01/22 05:43:39;;;;;;;13.00;6.18;;;;;;;-0.62;92.64;97313.25;5112193;28;20394;-77
2022/01/22 05:46:06;;;;;;;15.32;6.97;;;;;;;-0.59;92.80;97317.31;5111582;28;20051;-77
2022/01/22 05:48:32;;;;;;;13.82;6.10;;;;;;;-0.66;93.34;97322.75;5112094;28;20051;-77
2022/01/22 05:51:02;;;;;;;14.30;7.03;;;;;;;-0.68;93.95;97313.28;5111854;28;20529;-77
2022/01/22 05:53:40;;;;;;;12.60;6.63;;;;;;;-0.68;94.10;97324.84;5111790;28;20100;-77
2022/01/22 06:01:36;;;;;;;13.50;6.75;;;;;;;-0.59;93.78;97328.81;5111979;28;20523;-77
2022/01/22 06:04:03;;;;;;;12.85;6.90;;;;;;;-0.56;93.54;97327.59;5111491;28;20047;-77
2022/01/22 06:06:29;;;;;;;10.70;6.15;;;;;;;-0.55;93.45;97337.25;5111762;28;20513;-77
2022/01/22 06:08:57;;;;;;;15.77;7.57;;;;;;;-0.52;93.70;97339.47;5111935;28;20055;-77
2022/01/22 06:11:28;;;;;;;14.70;6.65;;;;;;;-0.53;93.70;97338.63;5111142;28;20486;-77
2022/01/22 06:13:55;;;;;;;12.77;7.68;;;;;;;-0.50;93.73;97340.06;5111192;28;20043;-77
2022/01/22 06:16:24;;;;;;;15.65;7.65;;;;;;;-0.51;93.84;97338.44;5111194;28;20391;-77
2022/01/22 06:18:51;;;;;;;14.88;7.60;;;;;;;-0.49;93.83;97348.91;5111603;28;20040;-77
2022/01/22 06:21:18;;;;;;;13.38;7.95;;;;;;;-0.50;93.55;97357.97;5111173;28;20059;-77
2022/01/22 06:23:45;;;;;;;12.65;7.30;;;;;;;-0.45;93.37;97356.25;5111543;28;20060;-77
2022/01/22 06:26:13;;;;;;;14.05;6.70;;;;;;;-0.45;93.24;97352.78;5111007;28;20051;-77
2022/01/22 06:28:41;;;;;;;15.18;7.38;;;;;;;-0.42;92.92;97363.81;5110797;28;20043;-78
2022/01/22 06:31:08;;;;;;;14.55;7.78;;;;;;;-0.40;92.64;97364.44;5110779;28;20131;-77
2022/01/22 06:33:35;;;;;;;14.30;7.30;;;;;;;-0.40;92.51;97359.09;5111493;28;20044;-77
2022/01/22 06:36:02;;;;;;;11.00;6.25;;;;;;;-0.41;92.33;97362.00;5110923;28;20051;-76
2022/01/22 06:38:28;;;;;;;13.95;7.35;;;;;;;-0.42;92.58;97361.16;5111031;28;20578;-77
2022/01/22 06:43:39;;;;;;;17.77;8.48;;;;;;;-0.40;92.76;97374.34;5111293;28;20047;-77
2022/01/22 06:46:06;;;;;;;17.08;7.90;;;;;;;-0.41;93.21;97381.53;5110734;28;20054;-77
2022/01/22 06:48:33;;;;;;;15.65;7.75;;;;;;;-0.43;93.20;97377.44;5111216;28;20044;-77
2022/01/22 06:51:00;;;;;;;19.25;8.38;;;;;;;-0.44;93.43;97373.13;5111032;28;20429;-77
2022/01/22 06:53:27;;;;;;;13.55;7.28;;;;;;;-0.44;93.64;97373.94;5110842;28;20486;-76
2022/01/22 06:55:57;;;;;;;15.38;7.82;;;;;;;-0.43;93.61;97372.91;5111281;28;20040;-77
2022/01/22 06:58:24;;;;;;;15.13;8.02;;;;;;;-0.45;93.80;97372.31;5110698;28;20055;-76
2022/01/22 07:00:50;;;;;;;17.70;8.73;;;;;;;-0.44;93.97;97379.31;5111157;28;20040;-77
2022/01/22 07:03:18;;;;;;;13.55;7.45;;;;;;;-0.46;94.11;97380.56;5110511;28;20414;-77
2022/01/22 07:05:44;;;;;;;22.65;9.95;;;;;;;-0.47;94.34;97385.13;5111106;28;20066;-77
2022/01/22 07:08:11;;;;;;;17.00;9.25;;;;;;;-0.47;94.56;97385.13;5110650;28;20050;-77
2022/01/22 07:10:38;;;;;;;16.52;8.38;;;;;;;-0.46;94.83;97389.41;5110800;28;20043;-77
2022/01/22 07:13:04;;;;;;;17.05;8.52;;;;;;;-0.50;95.02;97385.53;5110478;28;20052;-77
2022/01/22 07:15:31;;;;;;;17.02;9.00;;;;;;;-0.51;95.38;97394.63;5111016;28;20051;-76
2022/01/22 07:17:58;;;;;;;16.92;10.02;;;;;;;-0.54;95.64;97390.50;5110865;28;20044;-77
2022/01/22 07:20:29;;;;;;;20.42;10.70;;;;;;;-0.51;95.90;97388.44;5110415;28;20044;-74
2022/01/22 07:23:01;;;;;;;18.35;9.77;;;;;;;-0.52;95.89;97390.31;5110825;28;20414;-76
2022/01/22 07:25:29;;;;;;;18.92;10.45;;;;;;;-0.53;95.91;97399.34;5110718;28;20066;-76
2022/01/22 07:27:56;;;;;;;21.40;10.38;;;;;;;-0.52;95.98;97395.66;5111017;28;20044;-76
2022/01/22 07:30:22;;;;;;;21.90;10.52;;;;;;;-0.53;96.04;97397.50;5110361;28;20052;-76
2022/01/22 07:32:49;;;;;;;17.35;9.45;;;;;;;-0.56;96.15;97397.13;5110733;28;20040;-74
2022/01/22 07:35:18;;;;;;;18.73;10.52;;;;;;;-0.52;96.36;97393.00;5110187;28;20054;-74
2022/01/22 07:37:46;;;;;;;23.80;10.73;;;;;;;-0.50;96.21;97396.25;5109433;28;20093;-74
2022/01/22 07:40:13;;;;;;;22.58;10.45;;;;;;;-0.48;96.15;97404.03;5109549;28;20063;-74
2022/01/22 07:42:40;;;;;;;19.13;10.43;;;;;;;-0.46;96.01;97408.16;5111385;28;20047;-74
2022/01/22 07:45:07;;;;;;;19.55;9.82;;;;;;;-0.45;95.84;97403.63;5110076;27;20543;-73
2022/01/22 07:47:34;;;;;;;18.63;9.85;;;;;;;-0.46;95.86;97408.16;5111119;28;20379;-74
2022/01/22 07:50:01;;;;;;;21.02;10.25;;;;;;;-0.42;95.87;97409.31;5111115;28;20090;-73
2022/01/22 07:52:28;;;;;;;23.73;11.38;;;;;;;-0.39;95.65;97413.44;5111268;28;20128;-74
2022/01/22 07:54:55;;;;;;;19.85;10.40;;;;;;;-0.43;95.67;97401.53;5111313;28;20044;-74
2022/01/22 07:57:29;;;;;;;17.80;10.50;;;;;;;-0.41;95.56;97410.97;5110703;28;20058;-73
2022/01/22 08:12:53;;;;;;;19.48;11.10;;;;;;;-0.43;95.78;97418.38;3301713;26;20050;-94
2022/01/22 08:15:21;;;;;;;24.40;11.90;;;;;;;-0.41;95.87;97413.66;5035939;28;20053;-90
2022/01/22 08:17:48;;;;;;;22.35;10.70;;;;;;;-0.40;95.78;97419.81;5034684;28;20042;-94
2022/01/22 08:20:16;;;;;;;22.08;11.85;;;;;;;-0.38;95.85;97418.53;5030832;28;20072;-94
2022/01/22 08:22:43;;;;;;;22.23;11.43;;;;;;;-0.35;95.89;97422.66;5034690;28;20492;-91
2022/01/22 08:25:10;;;;;;;20.08;10.55;;;;;;;-0.33;95.56;97424.06;5033277;28;20053;-92
2022/01/22 08:27:42;;;;;;;23.80;11.57;;;;;;;-0.34;95.51;97427.78;5033836;28;20095;-95
2022/01/22 08:30:14;;;;;;;22.88;11.00;;;;;;;-0.35;95.37;97428.81;5049679;28;20080;-91
2022/01/22 08:38:18;;;;;;;20.83;11.02;;;;;;;-0.32;95.29;97436.38;5098305;28;20517;-74
2022/01/22 08:40:44;;;;;;;17.48;8.10;;;;;;;-0.35;95.31;97444.88;5108433;28;20050;-74
2022/01/22 08:43:11;;;;;;;21.55;11.35;;;;;;;-0.34;95.43;97454.53;5107992;28;20067;-74
2022/01/22 08:45:38;;;;;;;21.98;11.57;;;;;;;-0.34;95.16;97448.38;5108460;28;20044;-74
2022/01/22 08:48:05;;;;;;;18.02;10.25;;;;;;;-0.34;95.39;97465.25;5107962;28;20054;-74
2022/01/22 08:50:34;;;;;;;21.02;10.95;;;;;;;-0.36;95.22;97461.16;5108585;28;20083;-73
2022/01/22 08:53:02;;;;;;;20.80;11.45;;;;;;;-0.36;95.18;97463.84;5108383;28;20043;-73
2022/01/22 08:55:28;;;;;;;19.13;10.48;;;;;;;-0.33;95.02;97461.53;5107983;28;20040;-73
2022/01/22 08:57:55;;;;;;;20.25;10.32;;;;;;;-0.29;95.07;97472.59;5108466;28;20054;-73
2022/01/22 09:00:22;;;;;;;24.33;10.82;;;;;;;-0.30;94.82;97471.78;5107819;28;20420;-76
2022/01/22 09:02:50;;;;;;;19.73;11.82;;;;;;;-0.30;94.76;97470.97;5108181;28;20048;-74
2022/01/22 09:05:17;;;;;;;18.92;10.68;;;;;;;-0.31;94.74;97470.16;5107798;28;20044;-73
2022/01/22 09:07:44;;;;;;;16.92;9.95;;;;;;;-0.32;94.43;97473.84;5107972;28;20430;-73
2022/01/22 09:10:15;;;;;;;18.92;10.80;;;;;;;-0.27;94.44;97484.72;5107530;28;20489;-74
2022/01/22 09:12:42;;;;;;;23.33;10.50;;;;;;;-0.30;94.38;97481.69;5108108;28;20047;-73
2022/01/22 09:15:09;;;;;;;18.23;10.45;;;;;;;-0.35;94.35;97479.66;5107480;28;20051;-74
2022/01/22 09:17:35;;;;;;;20.88;10.85;;;;;;;-0.31;94.41;97482.72;5094498;28;20618;-74
2022/01/22 09:20:05;;;;;;;17.70;9.43;;;;;;;-0.29;94.19;97488.66;5087249;28;20059;-74
2022/01/22 09:22:32;;;;;;;23.02;10.18;;;;;;;-0.27;94.12;97497.28;5087761;28;20053;-74
2022/01/22 09:24:58;;;;;;;20.15;9.75;;;;;;;-0.20;94.01;97507.94;5087591;28;20051;-73
2022/01/22 09:27:28;;;;;;;19.52;10.32;;;;;;;-0.16;93.63;97507.25;5087063;28;20514;-73
2022/01/22 09:29:54;;;;;;;21.17;11.15;;;;;;;-0.19;93.68;97493.53;5087495;28;20052;-73
2022/01/22 09:32:21;;;;;;;19.70;10.77;;;;;;;-0.22;93.53;97504.66;5087017;28;20044;-73
2022/01/22 09:34:48;;;;;;;20.95;10.43;;;;;;;-0.26;93.60;97506.97;5087240;28;20041;-73
2022/01/22 09:37:14;;;;;;;19.67;9.30;;;;;;;-0.25;93.78;97521.19;5086994;28;20045;-73
2022/01/22 09:39:41;;;;;;;16.50;10.00;;;;;;;-0.22;94.03;97528.75;5087382;28;20052;-73
2022/01/22 09:42:08;;;;;;;19.98;10.10;;;;;;;-0.22;93.90;97520.72;5086892;28;20048;-73
2022/01/22 09:44:39;;;;;;;19.67;10.63;;;;;;;-0.16;94.01;97534.03;5086997;28;20049;-74
2022/01/22 09:47:05;;;;;;;21.38;9.95;;;;;;;-0.15;93.77;97534.88;5061673;28;20521;-74
2022/01/22 09:49:32;;;;;;;18.85;10.15;;;;;;;-0.21;93.55;97533.06;5053635;28;20072;-73
2022/01/22 09:51:59;;;;;;;19.23;10.48;;;;;;;-0.22;93.73;97532.25;5053337;28;20048;-73
2022/01/22 09:54:25;;;;;;;20.90;10.77;;;;;;;-0.20;93.77;97542.75;5052936;28;20052;-74
2022/01/22 09:56:52;;;;;;;19.20;10.30;;;;;;;-0.25;93.96;97543.41;5053545;28;20048;-74
2022/01/22 09:59:18;;;;;;;22.13;10.93;;;;;;;-0.21;94.20;97549.13;5052362;28;20045;-74
2022/01/22 10:01:46;;;;;;;22.45;11.23;;;;;;;-0.23;94.20;97553.88;5067485;28;20480;-75
2022/01/22 10:04:13;;;;;;;22.15;10.63;;;;;;;-0.18;94.11;97552.19;5069494;28;20079;-74
2022/01/22 10:06:52;;;;;;;24.83;11.77;;;;;;;-0.14;94.01;97555.25;5069895;28;20052;-74
2022/01/22 10:09:27;;;;;;;18.33;10.07;;;;;;;-0.16;93.70;97560.00;5068942;28;20582;-77
2022/01/22 10:12:10;;;;;;;17.90;9.93;;;;;;;-0.16;93.81;97562.66;5069471;28;20052;-77
2022/01/22 10:15:18;;;;;;;22.00;10.98;;;;;;;-0.18;93.85;97554.03;5088928;28;20051;-77
2022/01/22 10:17:48;;;;;;;21.00;10.43;;;;;;;-0.16;93.82;97546.59;5067897;28;20049;-77
2022/01/22 10:20:33;;;;;;;21.65;11.15;;;;;;;-0.15;93.86;97550.94;5068417;28;20044;-78
2022/01/22 10:23:02;;;;;;;20.67;10.85;;;;;;;-0.11;93.80;97546.75;5069287;28;20059;-76
2022/01/22 10:25:35;;;;;;;18.60;10.32;;;;;;;-0.14;93.62;97545.34;5069445;28;20505;-77
2022/01/22 10:28:05;;;;;;;17.98;10.20;;;;;;;-0.14;93.68;97549.91;5068956;28;20068;-78
2022/01/22 10:30:38;;;;;;;22.48;11.20;;;;;;;-0.17;93.75;97555.69;5069454;28;20567;-76
2022/01/22 10:33:28;;;;;;;21.83;12.00;;;;;;;-0.17;94.12;97553.00;5067817;28;20048;-77
2022/01/22 10:36:07;;;;;;;18.50;11.18;;;;;;;-0.15;93.94;97550.94;5069153;28;20580;-78
2022/01/22 10:38:39;;;;;;;22.15;10.77;;;;;;;-0.10;93.81;97551.09;5069203;28;20056;-77
2022/01/22 10:41:07;;;;;;;20.95;11.50;;;;;;;-0.05;93.63;97548.59;5068577;28;20495;-77
2022/01/22 10:43:35;;;;;;;20.60;12.30;;;;;;;-0.02;93.46;97553.47;5069210;28;20156;-77
2022/01/22 10:46:11;;;;;;;21.52;11.27;;;;;;;0.02;93.23;97559.22;5070371;28;20135;-74
2022/01/22 10:48:41;;;;;;;17.83;10.38;;;;;;;0.04;93.00;97563.31;5089202;28;20044;-77
2022/01/22 10:51:10;;;;;;;21.50;11.38;;;;;;;0.07;93.03;97552.16;5088568;28;20048;-75
2022/01/22 10:53:48;;;;;;;21.20;11.05;;;;;;;0.06;92.93;97561.25;5087539;28;20048;-73
2022/01/22 10:56:17;;;;;;;19.58;10.25;;;;;;;0.04;92.63;97557.13;5088276;28;20746;-73
2022/01/22 10:58:56;;;;;;;24.33;11.73;;;;;;;0.04;92.78;97563.31;5088104;28;20059;-73
2022/01/22 11:01:23;;;;;;;17.92;10.70;;;;;;;0.03;92.65;97564.34;5088220;28;20056;-73
2022/01/22 11:04:05;;;;;;;24.50;12.00;;;;;;;0.07;92.98;97573.59;5088796;28;20056;-73
2022/01/22 11:06:31;;;;;;;26.27;12.90;;;;;;;0.13;92.88;97571.88;5088341;28;20040;-72
2022/01/22 11:08:59;;;;;;;20.10;10.65;;;;;;;0.11;92.59;97574.78;5075930;28;20060;-73
2022/01/22 11:11:25;;;;;;;20.00;11.57;;;;;;;0.14;92.70;97579.69;5067958;28;20052;-74
2022/01/22 11:13:52;;;;;;;19.48;11.15;;;;;;;0.13;92.39;97578.06;5068357;28;20057;-74
2022/01/22 11:16:19;;;;;;;21.75;11.75;;;;;;;0.13;92.73;97578.06;5067361;28;20048;-75
2022/01/22 11:18:50;;;;;;;21.85;11.38;;;;;;;0.15;92.83;97575.97;5067295;28;20067;-75
2022/01/22 11:21:18;;;;;;;21.17;11.52;;;;;;;0.20;92.69;97570.75;5066145;28;20491;-75
2022/01/22 11:23:47;;;;;;;19.50;10.93;;;;;;;0.17;92.33;97568.53;5067586;28;20503;-77
2022/01/22 11:26:15;;;;;;;20.92;11.02;;;;;;;0.19;92.44;97568.31;5066950;28;20048;-75
2022/01/22 11:28:44;;;;;;;20.33;10.95;;;;;;;0.17;92.39;97563.19;5067646;28;20052;-75
2022/01/22 11:31:15;;;;;;;23.85;11.93;;;;;;;0.20;92.62;97567.25;5065508;28;20052;-76
2022/01/22 11:33:43;;;;;;;22.05;11.68;;;;;;;0.20;92.40;97568.06;5067870;28;20139;-76
2022/01/22 11:36:17;;;;;;;19.40;10.32;;;;;;;0.16;92.56;97576.81;5067753;28;20059;-75
2022/01/22 11:38:55;;;;;;;19.27;11.25;;;;;;;0.17;92.59;97568.53;5067199;28;20072;-75
2022/01/22 11:41:23;;;;;;;20.55;11.88;;;;;;;0.15;92.75;97565.25;5067258;28;20065;-75
2022/01/22 11:44:06;;;;;;;18.17;11.50;;;;;;;0.15;93.04;97575.13;5067874;28;20048;-75
2022/01/22 11:46:37;;;;;;;22.95;12.35;;;;;;;0.17;93.03;97573.91;5068251;28;20060;-75
2022/01/22 11:49:15;;;;;;;23.63;12.27;;;;;;;0.19;92.83;97571.81;5067576;28;20098;-75
2022/01/22 11:51:44;;;;;;;22.05;11.68;;;;;;;0.21;92.82;97568.91;5067609;28;20059;-75
2022/01/22 11:54:13;;;;;;;19.67;11.30;;;;;;;0.18;92.76;97570.16;5067401;28;20052;-76
2022/01/22 11:56:49;;;;;;;21.45;11.65;;;;;;;0.21;92.65;97575.09;5067680;28;20053;-75
2022/01/22 11:59:29;;;;;;;23.05;12.05;;;;;;;0.22;92.67;97576.72;5067433;28;20136;-75
2022/01/22 12:02:06;;;;;;;22.17;11.30;;;;;;;0.25;92.95;97568.22;5067604;28;20146;-76
2022/01/22 12:05:02;;;;;;;20.02;11.43;;;;;;;0.27;92.73;97572.56;5059990;28;20111;-75
2022/01/22 12:07:31;;;;;;;21.23;11.48;;;;;;;0.27;92.83;97568.03;5059580;28;20131;-76
2022/01/22 12:10:21;;;;;;;21.88;10.95;;;;;;;0.28;92.74;97564.31;5067925;28;20829;-76
2022/01/22 12:15:49;;;;;;;20.55;10.57;;;;;;;0.30;92.92;97572.91;5069790;28;20048;-76
2022/01/22 12:18:18;;;;;;;19.30;11.20;;;;;;;0.30;92.96;97572.09;5090535;28;20192;-78
2022/01/22 12:23:57;;;;;;;19.08;10.70;;;;;;;0.32;92.83;97570.03;5090956;28;20082;-78
2022/01/22 12:26:49;;;;;;;18.50;10.80;;;;;;;0.31;92.94;97573.75;5080504;28;20052;-76
2022/01/22 12:29:40;;;;;;;19.25;10.65;;;;;;;0.29;93.00;97571.28;5090395;28;20052;-76
2022/01/22 12:32:34;;;;;;;23.52;11.80;;;;;;;0.24;93.09;97563.91;5090373;28;20044;-76
2022/01/22 12:35:07;;;;;;;18.02;10.70;;;;;;;0.29;93.01;97560.56;5090560;28;20048;-76
2022/01/22 12:37:38;;;;;;;21.52;10.98;;;;;;;0.29;93.00;97570.47;5090856;28;20059;-76
2022/01/22 12:40:06;;;;;;;20.88;11.25;;;;;;;0.28;93.17;97568.84;5090232;28;20044;-76
2022/01/22 12:42:53;;;;;;;19.83;10.95;;;;;;;0.28;93.31;97563.50;5090767;28;20044;-77
2022/01/22 12:45:22;;;;;;;20.30;11.60;;;;;;;0.29;93.15;97563.25;5090374;28;20052;-77
2022/01/22 12:47:50;;;;;;;19.90;11.57;;;;;;;0.33;93.32;97555.59;5090424;28;20103;-77
2022/01/22 12:50:17;;;;;;;20.05;11.40;;;;;;;0.36;93.32;97557.81;5090322;28;20048;-77
2022/01/22 12:52:47;;;;;;;18.23;10.75;;;;;;;0.36;93.07;97555.13;5090844;28;20044;-76
2022/01/22 12:55:18;;;;;;;21.33;11.05;;;;;;;0.36;92.98;97544.41;5090291;28;20056;-76
2022/01/22 12:57:46;;;;;;;23.48;11.25;;;;;;;0.41;93.08;97549.94;5090753;28;20040;-79
2022/01/22 13:00:16;;;;;;;21.55;11.32;;;;;;;0.39;92.93;97555.50;5090220;28;20044;-76
2022/01/22 13:02:44;;;;;;;19.83;11.25;;;;;;;0.42;92.79;97554.25;5090614;28;20067;-76
2022/01/22 13:05:13;;;;;;;19.15;10.38;;;;;;;0.41;92.72;97552.59;5090239;28;20054;-76
2022/01/22 13:07:40;;;;;;;20.48;10.95;;;;;;;0.42;92.70;97559.63;5089882;28;20446;-76
2022/01/22 13:10:09;;;;;;;22.52;11.50;;;;;;;0.39;92.84;97555.50;5090179;28;20130;-78